Time;durP1;ratioP1;P1;durP2;ratioP2;P2;SDS_P1;SDS_P2;PMS_P1;PMS_P2;Temp;Humidity;BMP_temperature;BMP_pressure;BME280_temperature;BME280_humidity;BME280_pressure;Samples;Min_cycle;Max_cycle;Signal;HPM_P1;HPM_P2
2021/03/26 00:01:43;;;;;;;;;;;6.50;82.70;;;;;;4879499;29;19924;-88
2021/03/26 00:04:10;;;;;;;;;;;6.40;83.30;;;;;;4878465;29;20031;-88
2021/03/26 00:06:37;;;;;;;;;;;6.40;83.60;;;;;;4879055;29;19958;-88
2021/03/26 00:09:04;;;;;;;;;;;6.40;83.20;;;;;;4873746;29;19923;-88
2021/03/26 00:11:30;;;;;;;;;;;6.40;83.40;;;;;;4878169;29;20010;-88
2021/03/26 00:13:56;;;;;;;;;;;6.40;83.60;;;;;;4879102;29;19955;-88
2021/03/26 00:16:22;;;;;;;;;;;6.40;83.50;;;;;;4878174;29;19971;-87
2021/03/26 00:18:47;;;;;;;;;;;6.40;83.40;;;;;;4879427;29;19927;-89
2021/03/26 00:21:14;;;;;;;;;;;6.40;83.60;;;;;;4879125;29;20361;-88
2021/03/26 00:23:41;;;;;;;;;;;6.40;83.80;;;;;;4880995;29;19924;-89
2021/03/26 00:26:17;;;;;;;;;;;6.40;83.90;;;;;;4865361;29;20304;-88
2021/03/26 00:28:43;;;;;;;;;;;6.40;83.70;;;;;;4882644;29;20337;-89
2021/03/26 00:31:10;;;;;;;;;;;6.50;84.10;;;;;;4881545;29;19925;-89
2021/03/26 00:33:35;;;;;;;;;;;6.50;83.90;;;;;;4882545;29;20380;-88
2021/03/26 00:36:01;;;;;;;;;;;6.50;84.10;;;;;;4881738;29;19924;-88
2021/03/26 00:38:27;;;;;;;;;;;6.50;84.00;;;;;;4881773;29;20303;-87
2021/03/26 00:40:53;;;;;;;;;;;6.50;84.10;;;;;;4882244;29;20011;-88
2021/03/26 00:43:19;;;;;;;;;;;6.50;84.30;;;;;;4881876;29;19931;-88
2021/03/26 00:45:44;;;;;;;;;;;6.50;84.30;;;;;;4881969;29;19923;-88
2021/03/26 00:48:10;;;;;;;;;;;6.50;84.10;;;;;;4882144;29;19924;-88
2021/03/26 00:50:38;;;;;;;;;;;6.50;84.30;;;;;;4882495;29;19927;-87
2021/03/26 00:53:06;;;;;;;;;;;6.60;84.30;;;;;;4881155;29;19972;-88
2021/03/26 00:55:31;;;;;;;;;;;6.60;84.30;;;;;;4881949;29;19923;-89
2021/03/26 00:57:57;;;;;;;;;;;6.60;84.50;;;;;;4881924;29;19930;-87
2021/03/26 01:00:26;;;;;;;;;;;6.70;84.40;;;;;;4881726;29;19931;-89
2021/03/26 01:02:52;;;;;;;;;;;6.60;84.40;;;;;;4869679;29;20015;-87
2021/03/26 01:05:19;;;;;;;;;;;6.70;84.50;;;;;;4862619;29;19955;-88
2021/03/26 01:07:46;;;;;;;;;;;6.70;84.50;;;;;;4863038;29;20011;-87
2021/03/26 01:10:13;;;;;;;;;;;6.70;84.50;;;;;;4863202;29;20020;-87
2021/03/26 01:12:38;;;;;;;;;;;6.70;84.30;;;;;;4861884;29;20454;-87
2021/03/26 01:15:06;;;;;;;;;;;6.70;84.30;;;;;;4863210;29;20024;-87
2021/03/26 01:17:31;;;;;;;;;;;6.70;84.50;;;;;;4862803;29;20023;-89
2021/03/26 01:19:58;;;;;;;;;;;6.70;84.40;;;;;;4862846;29;20372;-88
2021/03/26 01:22:24;;;;;;;;;;;6.70;84.30;;;;;;4873641;29;19930;-89
2021/03/26 01:24:49;;;;;;;;;;;6.70;84.60;;;;;;4881461;29;19928;-87
2021/03/26 01:27:15;;;;;;;;;;;6.70;84.50;;;;;;4880704;29;19931;-87
2021/03/26 01:29:41;;;;;;;;;;;6.70;84.60;;;;;;4881746;29;19923;-89
2021/03/26 01:32:07;;;;;;;;;;;6.70;84.50;;;;;;4881284;29;19920;-88
2021/03/26 01:34:32;;;;;;;;;;;6.70;84.90;;;;;;4865657;29;20293;-89
2021/03/26 01:36:58;;;;;;;;;;;6.70;85.00;;;;;;4862919;29;19924;-88
2021/03/26 01:39:24;;;;;;;;;;;6.70;85.20;;;;;;4861537;29;19991;-88
2021/03/26 01:41:49;;;;;;;;;;;6.70;84.90;;;;;;4870337;29;19923;-88
2021/03/26 01:44:18;;;;;;;;;;;6.70;84.90;;;;;;4881197;29;19928;-87
2021/03/26 01:46:47;;;;;;;;;;;6.70;84.90;;;;;;4881400;29;19919;-88
2021/03/26 01:49:13;;;;;;;;;;;6.70;84.80;;;;;;4877170;29;19923;-87
2021/03/26 01:51:44;;;;;;;;;;;6.70;84.40;;;;;;4881211;29;19931;-88
2021/03/26 01:54:12;;;;;;;;;;;6.70;84.30;;;;;;4880851;29;20610;-88
2021/03/26 01:56:40;;;;;;;;;;;6.70;84.30;;;;;;4880565;29;20406;-88
2021/03/26 01:59:06;;;;;;;;;;;6.70;84.30;;;;;;4880646;29;20018;-88
2021/03/26 02:01:35;;;;;;;;;;;6.70;84.20;;;;;;4872231;29;19931;-88
2021/03/26 02:04:03;;;;;;;;;;;6.70;84.10;;;;;;4871668;29;20043;-89
2021/03/26 02:06:33;;;;;;;;;;;6.70;84.10;;;;;;4880820;29;19924;-86
2021/03/26 02:09:08;;;;;;;;;;;6.70;84.30;;;;;;4880248;29;20019;-86
2021/03/26 02:11:42;;;;;;;;;;;6.70;84.20;;;;;;4881284;29;19923;-86
2021/03/26 02:14:14;;;;;;;;;;;6.80;84.50;;;;;;4880620;29;20295;-86
2021/03/26 02:16:40;;;;;;;;;;;6.80;84.30;;;;;;4880191;29;20449;-87
2021/03/26 02:19:16;;;;;;;;;;;6.80;84.40;;;;;;4880816;29;19931;-86
2021/03/26 02:21:42;;;;;;;;;;;6.80;84.60;;;;;;4880900;29;19995;-86
2021/03/26 02:24:09;;;;;;;;;;;6.80;84.90;;;;;;4873363;29;20380;-86
2021/03/26 02:26:46;;;;;;;;;;;6.80;84.90;;;;;;4862179;29;19926;-86
2021/03/26 02:29:23;;;;;;;;;;;6.80;85.00;;;;;;4861874;29;19973;-86
2021/03/26 02:31:50;;;;;;;;;;;6.80;85.30;;;;;;4861832;29;19920;-87
2021/03/26 02:34:16;;;;;;;;;;;6.80;85.20;;;;;;4873095;29;19927;-86
2021/03/26 02:36:44;;;;;;;;;;;6.80;85.20;;;;;;4880176;29;19919;-87
2021/03/26 02:39:15;;;;;;;;;;;6.80;85.30;;;;;;4882246;29;19923;-87
2021/03/26 02:41:43;;;;;;;;;;;6.80;84.80;;;;;;4883084;29;20055;-88
2021/03/26 02:44:16;;;;;;;;;;;6.80;84.80;;;;;;4879656;29;19924;-86
2021/03/26 02:46:52;;;;;;;;;;;6.80;84.70;;;;;;4880621;29;19924;-89
2021/03/26 02:49:22;;;;;;;;;;;6.90;84.70;;;;;;4879915;29;19930;-87
2021/03/26 02:51:55;;;;;;;;;;;6.90;84.50;;;;;;4879779;29;19924;-86
2021/03/26 02:54:22;;;;;;;;;;;6.90;84.60;;;;;;4879894;29;19931;-86
2021/03/26 02:56:57;;;;;;;;;;;6.90;84.50;;;;;;4880221;29;19923;-85
2021/03/26 02:59:28;;;;;;;;;;;6.90;84.60;;;;;;4879406;29;19971;-86
2021/03/26 03:01:55;;;;;;;;;;;6.90;84.70;;;;;;4878482;29;19923;-87
2021/03/26 03:04:27;;;;;;;;;;;6.90;84.70;;;;;;4878863;29;19979;-86
2021/03/26 03:06:56;;;;;;;;;;;6.90;84.80;;;;;;4879195;29;19924;-87
2021/03/26 03:09:23;;;;;;;;;;;6.90;85.10;;;;;;4879631;29;19924;-87
2021/03/26 03:11:54;;;;;;;;;;;6.90;85.10;;;;;;4879333;29;20015;-87
2021/03/26 03:14:27;;;;;;;;;;;6.90;85.10;;;;;;4879829;29;19924;-88
2021/03/26 03:17:12;;;;;;;;;;;6.90;85.30;;;;;;4879416;29;20361;-87
2021/03/26 03:19:55;;;;;;;;;;;6.90;85.30;;;;;;4879341;29;19923;-89
2021/03/26 03:22:30;;;;;;;;;;;6.90;85.40;;;;;;4879236;29;19931;-87
2021/03/26 03:24:58;;;;;;;;;;;6.90;85.60;;;;;;4879685;29;19927;-86
2021/03/26 03:27:36;;;;;;;;;;;6.90;85.60;;;;;;4879174;29;20026;-87
2021/03/26 03:30:05;;;;;;;;;;;6.90;85.60;;;;;;4878848;29;20010;-86
2021/03/26 03:32:30;;;;;;;;;;;6.90;85.70;;;;;;4879590;29;20380;-86
2021/03/26 03:35:05;;;;;;;;;;;6.80;85.40;;;;;;4862668;29;19948;-86
2021/03/26 03:37:37;;;;;;;;;;;6.80;85.70;;;;;;4861261;29;20308;-86
2021/03/26 03:40:18;;;;;;;;;;;6.80;85.80;;;;;;4860805;29;19924;-87
2021/03/26 03:42:52;;;;;;;;;;;6.80;86.00;;;;;;4879777;29;19924;-87
2021/03/26 03:45:23;;;;;;;;;;;6.90;86.10;;;;;;4883758;29;20399;-87
2021/03/26 03:47:55;;;;;;;;;;;6.80;86.20;;;;;;4881275;29;19980;-87
2021/03/26 03:50:29;;;;;;;;;;;6.80;86.30;;;;;;4879287;29;19923;-86
2021/03/26 03:53:02;;;;;;;;;;;6.80;86.20;;;;;;4877897;29;19923;-86
2021/03/26 03:55:49;;;;;;;;;;;6.80;86.10;;;;;;4878873;29;19924;-86
2021/03/26 03:58:24;;;;;;;;;;;6.80;86.10;;;;;;4881428;29;20014;-87
2021/03/26 04:01:13;;;;;;;;;;;6.80;86.20;;;;;;4882239;29;19930;-85
2021/03/26 04:04:05;;;;;;;;;;;6.80;86.20;;;;;;4855107;29;19924;-86
2021/03/26 04:06:42;;;;;;;;;;;6.70;86.10;;;;;;4867813;29;19923;-87
2021/03/26 04:09:10;;;;;;;;;;;6.80;86.30;;;;;;4876810;29;20349;-86
2021/03/26 04:11:41;;;;;;;;;;;6.80;86.20;;;;;;4864615;29;19984;-86
2021/03/26 04:14:13;;;;;;;;;;;6.80;86.30;;;;;;4864311;29;19924;-87
2021/03/26 04:16:39;;;;;;;;;;;6.80;86.40;;;;;;4864056;29;19923;-86
2021/03/26 04:19:14;;;;;;;;;;;6.80;86.40;;;;;;4863891;29;20312;-87
2021/03/26 04:21:42;;;;;;;;;;;6.80;86.40;;;;;;4864017;29;20289;-86
2021/03/26 04:24:08;;;;;;;;;;;6.80;86.40;;;;;;4863249;29;20438;-86
2021/03/26 04:26:36;;;;;;;;;;;6.80;86.50;;;;;;4864292;29;19924;-87
2021/03/26 04:29:07;;;;;;;;;;;6.80;86.60;;;;;;4864010;29;19931;-86
2021/03/26 04:31:37;;;;;;;;;;;6.80;86.60;;;;;;4864126;29;19924;-87
2021/03/26 04:34:03;;;;;;;;;;;6.80;86.90;;;;;;4863902;29;19924;-87
2021/03/26 04:36:35;;;;;;;;;;;6.80;87.10;;;;;;4879862;29;20359;-87
2021/03/26 04:39:05;;;;;;;;;;;6.80;87.10;;;;;;4882297;29;19927;-88
2021/03/26 04:41:43;;;;;;;;;;;6.80;87.20;;;;;;4882703;29;20085;-87
2021/03/26 04:44:12;;;;;;;;;;;6.80;87.30;;;;;;4881869;29;19971;-87
2021/03/26 04:46:59;;;;;;;;;;;6.80;87.30;;;;;;4882638;29;19971;-87
2021/03/26 04:49:28;;;;;;;;;;;6.90;87.50;;;;;;4882385;29;20424;-87
2021/03/26 04:54:55;;;;;;;;;;;6.90;88.50;;;;;;4877577;29;19927;-88
2021/03/26 04:57:29;;;;;;;;;;;6.90;87.80;;;;;;4863619;29;19928;-86
2021/03/26 04:59:59;;;;;;;;;;;6.90;87.80;;;;;;4857115;29;20272;-87
2021/03/26 05:02:25;;;;;;;;;;;6.90;87.80;;;;;;4863199;29;20354;-87
2021/03/26 05:04:55;;;;;;;;;;;6.90;87.70;;;;;;4877578;29;20347;-87
2021/03/26 05:07:29;;;;;;;;;;;6.90;87.80;;;;;;4882128;29;19930;-86
2021/03/26 05:10:00;;;;;;;;;;;6.90;87.80;;;;;;4865390;29;20329;-86
2021/03/26 05:12:27;;;;;;;;;;;6.90;87.80;;;;;;4881487;29;19939;-87
2021/03/26 05:15:19;;;;;;;;;;;6.90;87.80;;;;;;4882320;29;19924;-86
2021/03/26 05:17:50;;;;;;;;;;;6.90;87.90;;;;;;4852228;29;20010;-87
2021/03/26 05:20:39;;;;;;;;;;;6.90;87.90;;;;;;4862208;29;19927;-86
2021/03/26 05:23:08;;;;;;;;;;;6.90;87.90;;;;;;4863096;29;19924;-87
2021/03/26 05:25:38;;;;;;;;;;;6.90;88.00;;;;;;4862697;29;20328;-86
2021/03/26 05:28:05;;;;;;;;;;;6.90;88.10;;;;;;4862812;29;19946;-87
2021/03/26 05:30:34;;;;;;;;;;;6.90;88.00;;;;;;4863133;29;19949;-87
2021/03/26 05:33:08;;;;;;;;;;;7.00;88.10;;;;;;4863581;29;19966;-86
2021/03/26 05:35:40;;;;;;;;;;;7.00;88.10;;;;;;4863465;29;19952;-86
2021/03/26 05:38:08;;;;;;;;;;;7.00;88.20;;;;;;4862557;29;19927;-87
2021/03/26 05:40:51;;;;;;;;;;;7.00;88.20;;;;;;4862755;29;19945;-87
2021/03/26 05:43:35;;;;;;;;;;;7.00;88.10;;;;;;4863004;29;19932;-87
2021/03/26 05:46:19;;;;;;;;;;;7.00;88.20;;;;;;4862766;29;19959;-87
2021/03/26 05:49:04;;;;;;;;;;;7.00;88.40;;;;;;4862396;29;20464;-87
2021/03/26 05:51:47;;;;;;;;;;;7.00;88.30;;;;;;4862834;29;19930;-87
2021/03/26 05:54:50;;;;;;;;;;;7.00;88.30;;;;;;4863673;29;19938;-86
2021/03/26 05:57:20;;;;;;;;;;;7.10;88.50;;;;;;4789643;29;19929;-86
2021/03/26 05:59:58;;;;;;;;;;;7.10;88.80;;;;;;4773220;30;19931;-88
2021/03/26 06:02:24;;;;;;;;;;;7.10;88.80;;;;;;4840767;29;20292;-88
2021/03/26 06:04:55;;;;;;;;;;;7.20;89.00;;;;;;4864833;29;19924;-87
2021/03/26 06:07:32;;;;;;;;;;;7.20;89.10;;;;;;4862398;29;19924;-85
2021/03/26 06:10:12;;;;;;;;;;;7.20;89.50;;;;;;4874704;29;19927;-87
2021/03/26 06:12:56;;;;;;;;;;;7.30;89.90;;;;;;4873714;29;19923;-86
2021/03/26 06:15:45;;;;;;;;;;;7.30;89.80;;;;;;4870929;29;20357;-88
2021/03/26 06:18:31;;;;;;;;;;;7.40;89.80;;;;;;4869021;29;19924;-90
2021/03/26 06:21:07;;;;;;;;;;;7.40;90.00;;;;;;4872601;29;19939;-90
2021/03/26 06:23:33;;;;;;;;;;;7.40;90.20;;;;;;4874435;29;20298;-89
2021/03/26 06:26:27;;;;;;;;;;;;;;;;;;;;;
2021/03/26 06:29:27;;;;;;;;;;;7.50;90.00;;;;;;4874932;29;20022;-90
2021/03/26 06:32:15;;;;;;;;;;;7.40;90.10;;;;;;4875207;29;19924;-90
2021/03/26 06:35:00;;;;;;;;;;;7.40;90.00;;;;;;4836618;29;19919;-88
2021/03/26 06:37:51;;;;;;;;;;;7.40;89.90;;;;;;4846503;29;20300;-90
2021/03/26 06:40:25;;;;;;;;;;;7.40;90.00;;;;;;4862828;29;19928;-90
2021/03/26 06:43:03;;;;;;;;;;;7.40;90.20;;;;;;4863185;29;19955;-88
2021/03/26 06:45:31;;;;;;;;;;;7.40;90.20;;;;;;4879364;29;20014;-91
2021/03/26 06:48:05;;;;;;;;;;;7.40;90.30;;;;;;4862125;29;19945;-86
2021/03/26 06:50:53;;;;;;;;;;;7.40;90.20;;;;;;4824351;29;19925;-85
2021/03/26 06:53:42;;;;;;;;;;;7.40;90.20;;;;;;4824703;29;19934;-85
2021/03/26 06:56:36;;;;;;;;;;;7.40;90.30;;;;;;4824398;29;20382;-84
2021/03/26 06:59:17;;;;;;;;;;;7.50;90.50;;;;;;4824306;29;19925;-86
2021/03/26 07:02:01;;;;;;;;;;;7.50;90.50;;;;;;4828842;29;19928;-88
2021/03/26 07:04:45;;;;;;;;;;;7.40;90.50;;;;;;4831485;29;19973;-83
2021/03/26 07:07:21;;;;;;;;;;;7.50;90.50;;;;;;4834311;29;19931;-84
2021/03/26 07:10:01;;;;;;;;;;;7.50;90.60;;;;;;4836872;29;19924;-85
2021/03/26 07:12:36;;;;;;;;;;;7.50;90.90;;;;;;4841005;29;19925;-84
2021/03/26 07:15:05;;;;;;;;;;;7.50;90.80;;;;;;4842169;29;19924;-85
2021/03/26 07:17:54;;;;;;;;;;;7.50;90.90;;;;;;4839507;29;20281;-85
2021/03/26 07:20:41;;;;;;;;;;;7.60;90.90;;;;;;4838108;29;20023;-85
2021/03/26 07:23:06;;;;;;;;;;;7.60;91.20;;;;;;4832951;29;19978;-88
2021/03/26 07:35:41;;;;;;;;;;;;;;;;;;;;;
2021/03/26 07:39:00;;;;;;;;;;;7.70;91.30;;;;;;4832759;29;19968;-88
2021/03/26 07:41:57;;;;;;;;;;;7.70;91.20;;;;;;4848572;29;20006;-89
2021/03/26 07:51:58;;;;;;;;;;;7.70;91.40;;;;;;4883017;29;20324;-89
2021/03/26 07:54:51;;;;;;;;;;;7.70;91.30;;;;;;4884745;29;19924;-89
2021/03/26 07:57:35;;;;;;;;;;;7.70;91.20;;;;;;4885364;29;20456;-88
2021/03/26 08:03:55;;;;;;;;;;;7.80;91.40;;;;;;4881938;29;20027;-89
2021/03/26 08:10:16;;;;;;;;;;;;;;;;;;;;;
2021/03/26 08:13:30;;;;;;;;;;;7.80;91.20;;;;;;4828884;29;19919;-89
2021/03/26 08:19:53;;;;;;;;;;;7.90;91.00;;;;;;4877946;29;20416;-90
2021/03/26 08:22:37;;;;;;;;;;;7.90;91.30;;;;;;4864543;29;19960;-89
2021/03/26 08:25:22;;;;;;;;;;;7.90;91.20;;;;;;4877239;29;19928;-88
2021/03/26 08:27:50;;;;;;;;;;;7.90;91.20;;;;;;4867836;29;19959;-88
2021/03/26 08:30:40;;;;;;;;;;;8.00;91.40;;;;;;4864345;29;19920;-88
2021/03/26 08:33:24;;;;;;;;;;;8.00;91.40;;;;;;4863116;29;19924;-88
2021/03/26 08:36:10;;;;;;;;;;;8.00;91.50;;;;;;4863589;29;20297;-87
2021/03/26 08:38:54;;;;;;;;;;;8.10;91.40;;;;;;4863999;29;19942;-91
2021/03/26 08:41:27;;;;;;;;;;;8.10;91.50;;;;;;4867874;29;20420;-85
2021/03/26 08:43:55;;;;;;;;;;;8.20;91.60;;;;;;4862675;29;19927;-90
2021/03/26 08:46:23;;;;;;;;;;;8.20;91.50;;;;;;4864065;29;20030;-86
2021/03/26 08:49:03;;;;;;;;;;;8.20;91.50;;;;;;4864068;29;19970;-89
2021/03/26 08:51:51;;;;;;;;;;;8.30;91.50;;;;;;4863279;29;19924;-88
2021/03/26 08:54:34;;;;;;;;;;;8.30;91.50;;;;;;4863499;29;19972;-89
2021/03/26 08:57:04;;;;;;;;;;;8.40;91.40;;;;;;4872998;29;19938;-89
2021/03/26 08:59:43;;;;;;;;;;;8.40;91.50;;;;;;4871372;29;20305;-90
2021/03/26 09:02:09;;;;;;;;;;;8.50;91.50;;;;;;4870594;29;20015;-89
2021/03/26 09:04:44;;;;;;;;;;;8.50;91.50;;;;;;4868160;29;20023;-88
2021/03/26 09:07:19;;;;;;;;;;;8.60;91.60;;;;;;4864452;29;19919;-89
2021/03/26 09:10:04;;;;;;;;;;;8.60;91.40;;;;;;4872091;29;19927;-88
2021/03/26 09:12:48;;;;;;;;;;;8.70;91.30;;;;;;4881202;29;19928;-89
2021/03/26 09:15:33;;;;;;;;;;;8.70;91.30;;;;;;4863166;29;19924;-88
2021/03/26 09:17:59;;;;;;;;;;;8.80;91.40;;;;;;4862085;29;19931;-89
2021/03/26 09:20:35;;;;;;;;;;;8.90;91.40;;;;;;4865970;29;19924;-87
2021/03/26 09:23:16;;;;;;;;;;;9.00;91.50;;;;;;4880009;29;20412;-88
2021/03/26 09:25:50;;;;;;;;;;;9.10;91.40;;;;;;4871991;29;20547;-88
2021/03/26 09:28:27;;;;;;;;;;;9.20;91.30;;;;;;4871164;29;20593;-88
2021/03/26 09:31:20;;;;;;;;;;;9.20;91.30;;;;;;4873751;29;20345;-88
2021/03/26 09:34:23;;;;;;;;;;;9.40;91.20;;;;;;4871688;29;19931;-89
2021/03/26 09:50:33;;;;;;;;;;;10.00;90.50;;;;;;4864993;29;19924;-89
2021/03/26 09:53:08;;;;;;;;;;;10.10;90.10;;;;;;4870774;29;19924;-87
2021/03/26 09:55:35;;;;;;;;;;;10.10;90.00;;;;;;4874340;29;19924;-86
2021/03/26 09:58:16;;;;;;;;;;;10.20;90.00;;;;;;4869483;29;19931;-88
2021/03/26 10:00:48;;;;;;;;;;;10.40;90.10;;;;;;4873278;29;19923;-88
2021/03/26 10:03:32;;;;;;;;;;;10.50;90.00;;;;;;4881600;29;20380;-88
2021/03/26 10:06:04;;;;;;;;;;;10.60;89.90;;;;;;4871514;29;20371;-88
2021/03/26 10:08:56;;;;;;;;;;;10.70;90.10;;;;;;4879958;29;19940;-91
2021/03/26 10:11:44;;;;;;;;;;;10.80;89.50;;;;;;4880329;29;19923;-91
2021/03/26 10:14:15;;;;;;;;;;;10.90;88.30;;;;;;4863388;29;19924;-90
2021/03/26 10:16:47;;;;;;;;;;;11.00;87.60;;;;;;4871747;29;20365;-90
2021/03/26 10:19:15;;;;;;;;;;;11.20;87.20;;;;;;4874096;29;20015;-89
2021/03/26 10:21:46;;;;;;;;;;;11.30;86.80;;;;;;4880606;29;20257;-91
2021/03/26 10:24:30;;;;;;;;;;;11.40;86.20;;;;;;4878729;29;19924;-88
2021/03/26 10:27:01;;;;;;;;;;;11.50;85.80;;;;;;4868400;29;19924;-88
2021/03/26 10:29:35;;;;;;;;;;;11.50;85.50;;;;;;4873084;29;19931;-85
2021/03/26 10:32:06;;;;;;;;;;;11.60;84.40;;;;;;4860025;29;20441;-83
2021/03/26 10:34:33;;;;;;;;;;;11.70;83.40;;;;;;4861150;29;19931;-84
2021/03/26 10:37:04;;;;;;;;;;;11.80;83.70;;;;;;4860179;29;19924;-85
2021/03/26 10:39:58;;;;;;;;;;;11.80;83.50;;;;;;4861579;29;19931;-84
2021/03/26 10:42:31;;;;;;;;;;;12.00;83.20;;;;;;4860885;29;19934;-85
2021/03/26 10:45:03;;;;;;;;;;;12.10;81.40;;;;;;4861684;29;19924;-85
2021/03/26 10:47:29;;;;;;;;;;;12.20;80.10;;;;;;4861925;29;19924;-84
2021/03/26 10:50:15;;;;;;;;;;;12.30;79.10;;;;;;4861144;29;19979;-84
2021/03/26 10:52:46;;;;;;;;;;;12.40;77.40;;;;;;4860912;29;20002;-85
2021/03/26 10:55:26;;;;;;;;;;;12.50;76.30;;;;;;4861271;29;20400;-84
2021/03/26 10:58:00;;;;;;;;;;;12.60;76.20;;;;;;4860758;29;19963;-84
2021/03/26 11:00:34;;;;;;;;;;;12.70;76.00;;;;;;4861305;29;20016;-84
2021/03/26 11:03:11;;;;;;;;;;;12.70;75.80;;;;;;4860301;29;19924;-85
2021/03/26 11:05:37;;;;;;;;;;;12.80;74.90;;;;;;4861258;29;19980;-84
2021/03/26 11:08:02;;;;;;;;;;;12.80;75.40;;;;;;4844383;29;19927;-87
2021/03/26 11:10:36;;;;;;;;;;;12.90;71.90;;;;;;4860586;29;20055;-85
2021/03/26 11:13:09;;;;;;;;;;;13.00;74.30;;;;;;4860935;29;19928;-84
2021/03/26 11:15:37;;;;;;;;;;;13.10;71.90;;;;;;4861524;29;19924;-84
2021/03/26 11:18:12;;;;;;;;;;;13.20;71.80;;;;;;4860308;29;19935;-85
2021/03/26 11:20:51;;;;;;;;;;;13.20;72.20;;;;;;4861246;29;19924;-84
2021/03/26 11:23:17;;;;;;;;;;;13.30;71.50;;;;;;4860920;29;20011;-85
2021/03/26 11:25:47;;;;;;;;;;;13.30;70.60;;;;;;4860571;29;20266;-84
2021/03/26 11:28:20;;;;;;;;;;;13.30;71.10;;;;;;4860908;29;20342;-85
2021/03/26 11:30:49;;;;;;;;;;;13.30;71.30;;;;;;4860902;29;20333;-84
2021/03/26 11:33:26;;;;;;;;;;;13.30;70.80;;;;;;4859941;29;20003;-84
2021/03/26 11:35:55;;;;;;;;;;;13.40;70.60;;;;;;4861383;29;19928;-84
2021/03/26 11:38:23;;;;;;;;;;;13.40;69.20;;;;;;4860152;29;19930;-85
2021/03/26 11:41:09;;;;;;;;;;;13.40;70.90;;;;;;4861253;29;19930;-84
2021/03/26 11:43:43;;;;;;;;;;;13.40;69.90;;;;;;4858926;29;19980;-85
2021/03/26 11:46:16;;;;;;;;;;;13.40;70.00;;;;;;4859909;29;20369;-85
2021/03/26 11:49:02;;;;;;;;;;;13.40;68.30;;;;;;4861106;29;19920;-84
2021/03/26 11:51:31;;;;;;;;;;;13.40;69.10;;;;;;4860979;29;19976;-84
2021/03/26 11:53:58;;;;;;;;;;;13.40;69.10;;;;;;4860096;29;19985;-84
2021/03/26 11:56:39;;;;;;;;;;;13.40;69.90;;;;;;4861074;29;20003;-84
2021/03/26 11:59:16;;;;;;;;;;;13.40;69.50;;;;;;4860718;29;19975;-85
2021/03/26 12:01:44;;;;;;;;;;;13.40;69.10;;;;;;4824370;29;19931;-84
2021/03/26 12:04:21;;;;;;;;;;;13.40;70.80;;;;;;4823952;29;19925;-84
2021/03/26 12:06:58;;;;;;;;;;;13.50;69.00;;;;;;4823675;29;19924;-85
2021/03/26 12:09:36;;;;;;;;;;;13.60;69.20;;;;;;4824398;29;19972;-84
2021/03/26 12:12:17;;;;;;;;;;;13.60;68.90;;;;;;4823644;29;19925;-84
2021/03/26 12:14:49;;;;;;;;;;;13.60;67.00;;;;;;4823363;29;19924;-85
2021/03/26 12:17:20;;;;;;;;;;;13.60;67.10;;;;;;4823542;29;20015;-85
2021/03/26 12:19:46;;;;;;;;;;;13.70;65.40;;;;;;4826584;29;19947;-84
2021/03/26 12:22:17;;;;;;;;;;;13.70;66.20;;;;;;4826120;29;20430;-85
2021/03/26 12:25:02;;;;;;;;;;;13.70;66.50;;;;;;4821223;29;20369;-85
2021/03/26 12:28:06;;;;;;;;;;;13.80;66.00;;;;;;4826593;29;19920;-84
2021/03/26 12:31:03;;;;;;;;;;;13.80;66.20;;;;;;4789068;29;19936;-86
2021/03/26 12:33:35;;;;;;;;;;;13.80;66.30;;;;;;4789193;29;19951;-86
2021/03/26 12:36:43;;;;;;;;;;;;;;;;;;;;;
2021/03/26 12:43:03;;;;;;;;;;;13.80;63.30;;;;;;4788089;30;19940;-86
2021/03/26 12:45:58;;;;;;;;;;;13.80;64.30;;;;;;4826309;29;19931;-87
2021/03/26 12:49:01;;;;;;;;;;;13.80;65.80;;;;;;4789014;29;20377;-86
2021/03/26 12:52:05;;;;;;;;;;;13.80;64.30;;;;;;4826992;29;19929;-85
2021/03/26 12:55:07;;;;;;;;;;;13.80;63.80;;;;;;4826835;29;19924;-84
2021/03/26 12:57:42;;;;;;;;;;;13.80;63.20;;;;;;4825972;29;20425;-83
2021/03/26 13:00:28;;;;;;;;;;;13.80;63.60;;;;;;4844178;29;19923;-84
2021/03/26 13:03:00;;;;;;;;;;;13.80;62.90;;;;;;4852875;29;19979;-91
2021/03/26 13:05:28;;;;;;;;;;;13.80;63.60;;;;;;4869633;29;19931;-86
2021/03/26 13:07:54;;;;;;;;;;;13.80;62.50;;;;;;4868547;29;20319;-84
2021/03/26 13:10:38;;;;;;;;;;;13.80;61.70;;;;;;4876937;29;19928;-84
2021/03/26 13:13:12;;;;;;;;;;;13.80;62.40;;;;;;4879674;29;19950;-82
2021/03/26 13:15:39;;;;;;;;;;;13.80;61.00;;;;;;4873489;29;19947;-86
2021/03/26 13:18:09;;;;;;;;;;;13.90;63.60;;;;;;4864141;29;19928;-85
2021/03/26 13:20:49;;;;;;;;;;;13.90;62.90;;;;;;4865566;29;20376;-84
2021/03/26 13:23:21;;;;;;;;;;;14.00;62.20;;;;;;4874509;29;19931;-85
2021/03/26 13:25:56;;;;;;;;;;;13.90;62.10;;;;;;4862340;29;19924;-86
2021/03/26 13:28:28;;;;;;;;;;;13.90;62.10;;;;;;4862680;29;19924;-84
2021/03/26 13:30:56;;;;;;;;;;;13.90;61.80;;;;;;4861426;29;19935;-84
2021/03/26 13:33:27;;;;;;;;;;;13.90;63.10;;;;;;4862781;29;19928;-85
2021/03/26 13:35:58;;;;;;;;;;;13.90;62.30;;;;;;4864092;29;20282;-85
2021/03/26 13:38:32;;;;;;;;;;;13.90;64.00;;;;;;4862608;29;19924;-85
2021/03/26 13:40:58;;;;;;;;;;;13.90;63.90;;;;;;4877038;29;20300;-86
2021/03/26 13:43:25;;;;;;;;;;;13.90;62.30;;;;;;4851183;29;19932;-86
2021/03/26 13:45:52;;;;;;;;;;;13.90;63.40;;;;;;4875285;29;19924;-85
2021/03/26 13:48:19;;;;;;;;;;;13.90;63.00;;;;;;4878753;29;19978;-85
2021/03/26 13:50:48;;;;;;;;;;;14.00;62.80;;;;;;4897817;29;19924;-85
2021/03/26 13:53:32;;;;;;;;;;;14.00;61.70;;;;;;4891337;29;19974;-85
2021/03/26 13:56:27;;;;;;;;;;;13.90;62.10;;;;;;4873606;29;20285;-87
2021/03/26 13:58:56;;;;;;;;;;;13.90;63.50;;;;;;4842661;29;19924;-83
2021/03/26 14:01:21;;;;;;;;;;;13.90;60.50;;;;;;4872194;29;19924;-82
2021/03/26 14:03:49;;;;;;;;;;;13.80;60.90;;;;;;4876630;29;19972;-84
2021/03/26 14:06:33;;;;;;;;;;;13.80;61.50;;;;;;4872224;29;20385;-82
2021/03/26 14:09:46;;;;;;;;;;;13.80;62.40;;;;;;4865408;29;19974;-81
2021/03/26 14:12:23;;;;;;;;;;;13.80;62.10;;;;;;4873987;29;19935;-82
2021/03/26 14:15:03;;;;;;;;;;;13.70;61.80;;;;;;4863767;29;20060;-82
2021/03/26 14:17:41;;;;;;;;;;;13.70;62.00;;;;;;4880626;29;20052;-82
2021/03/26 14:20:06;;;;;;;;;;;13.70;62.40;;;;;;4876951;29;19924;-82
2021/03/26 14:23:10;;;;;;;;;;;13.80;62.70;;;;;;4877477;29;19931;-82
2021/03/26 14:25:56;;;;;;;;;;;13.80;61.20;;;;;;4804133;29;20349;-82
2021/03/26 14:31:54;;;;;;;;;;;13.80;60.40;;;;;;4774699;29;19929;-83
2021/03/26 14:34:22;;;;;;;;;;;13.80;60.20;;;;;;4809220;29;19955;-82
2021/03/26 14:36:56;;;;;;;;;;;13.90;60.70;;;;;;4866884;29;19924;-81
2021/03/26 14:39:22;;;;;;;;;;;13.80;61.30;;;;;;4864906;29;19923;-81
2021/03/26 14:41:50;;;;;;;;;;;13.90;60.90;;;;;;4877286;29;20340;-81
2021/03/26 14:44:24;;;;;;;;;;;13.90;60.40;;;;;;4873094;29;20020;-81
2021/03/26 14:47:08;;;;;;;;;;;13.90;59.70;;;;;;4867700;29;20281;-81
2021/03/26 14:49:36;;;;;;;;;;;13.90;59.30;;;;;;4868837;29;20002;-81
2021/03/26 14:52:08;;;;;;;;;;;13.90;58.70;;;;;;4872088;29;19927;-81
2021/03/26 14:54:45;;;;;;;;;;;13.90;59.00;;;;;;4870443;29;19927;-81
2021/03/26 14:57:17;;;;;;;;;;;13.90;59.00;;;;;;4874503;29;19930;-82
2021/03/26 14:59:52;;;;;;;;;;;13.90;58.30;;;;;;4874951;29;19924;-81
2021/03/26 15:02:19;;;;;;;;;;;13.90;58.90;;;;;;4870602;29;19931;-81
2021/03/26 15:04:49;;;;;;;;;;;13.90;58.60;;;;;;4873019;29;20385;-81
2021/03/26 15:07:22;;;;;;;;;;;13.90;58.30;;;;;;4874790;29;19931;-81
2021/03/26 15:10:05;;;;;;;;;;;13.90;58.10;;;;;;4870157;29;20329;-81
2021/03/26 15:12:46;;;;;;;;;;;13.90;59.00;;;;;;4868376;29;20002;-81
2021/03/26 15:15:24;;;;;;;;;;;13.90;59.30;;;;;;4869896;29;19923;-81
2021/03/26 15:18:17;;;;;;;;;;;;;;;;;;;;;
2021/03/26 15:21:17;;;;;;;;;;;13.80;58.10;;;;;;4812569;29;20022;-81
2021/03/26 15:23:55;;;;;;;;;;;13.80;58.40;;;;;;4867711;29;19939;-82
2021/03/26 15:26:37;;;;;;;;;;;13.70;58.90;;;;;;4864305;29;19984;-82
2021/03/26 15:29:11;;;;;;;;;;;13.70;59.80;;;;;;4867973;29;19928;-83
2021/03/26 15:31:55;;;;;;;;;;;13.70;59.80;;;;;;4871176;29;20000;-83
2021/03/26 15:34:24;;;;;;;;;;;13.60;60.30;;;;;;4865944;29;19931;-83
2021/03/26 15:37:24;;;;;;;;;;;13.70;60.00;;;;;;4864832;29;19924;-83
2021/03/26 15:39:53;;;;;;;;;;;13.70;59.50;;;;;;4870957;29;19925;-82
2021/03/26 15:42:35;;;;;;;;;;;13.70;58.70;;;;;;4870525;29;19936;-82
2021/03/26 15:45:08;;;;;;;;;;;13.60;59.40;;;;;;4876115;29;19923;-82
2021/03/26 15:48:16;;;;;;;;;;;;;;;;;;;;;
2021/03/26 15:51:00;;;;;;;;;;;13.60;60.20;;;;;;4845114;29;19963;-81
2021/03/26 15:53:44;;;;;;;;;;;13.60;59.40;;;;;;4852629;29;19924;-81
2021/03/26 15:56:13;;;;;;;;;;;13.50;59.80;;;;;;4869070;29;19931;-82
2021/03/26 15:58:59;;;;;;;;;;;13.60;59.70;;;;;;4866965;29;20699;-83
2021/03/26 16:01:57;;;;;;;;;;;13.60;60.00;;;;;;4869822;29;19972;-82
2021/03/26 16:04:25;;;;;;;;;;;13.50;59.80;;;;;;4875335;29;20257;-82
2021/03/26 16:07:25;;;;;;;;;;;13.50;60.30;;;;;;4861324;29;19924;-82
2021/03/26 16:10:24;;;;;;;;;;;13.50;60.20;;;;;;4877218;29;19924;-82
2021/03/26 16:23:14;;;;;;;;;;;13.50;59.50;;;;;;4826666;29;19928;-83